Flight Track Log - Related Links

Times and Time Zones

All times are in EDT time to prevent confusion due to time zone crossing. See the AAY1056 flight status page for this flight to view local times or setup timezone preferences in your user account.

Time Position Orientation Groundspeed Altitude Reporting Facility
EDT Latitude Longitude Course Direction KTS MPH feet Rate Location/Type
Wed 01:58:02 PM 21.1850 -157.7350 109° East 291 335 8,200  Level FlightAware ADS-B
Wed 01:58:52 PM 21.1840 -157.6710 91° East 297 342 9,900 1,867 Climbing FlightAware ADS-B
Wed 01:59:32 PM 21.2070 -157.6020 70° East 329 379 11,000 2,000 Climbing FlightAware ADS-B
Wed 02:00:22 PM 21.2320 -157.5280 70° East 332 382 12,900 1,800 Climbing FlightAware ADS-B
Wed 02:01:02 PM 21.2670 -157.4750 55° Northeast 352 405 13,700 565 Climbing FlightAware ADS-B
Wed 02:01:47 PM 21.3220 -157.4380 32° Northeast 352 405 13,700 1,091 Level FlightAware ADS-B
Wed 02:01:57 PM 21.3700 -157.4450 352° North 388 447 14,700 2,160 Climbing FlightAware ADS-B
Wed 02:02:37 PM 21.4290 -157.4300 13° North 399 459 15,500 1,020 Climbing FlightAware ADS-B
Wed 02:03:37 PM 21.5360 -157.4020 14° North 406 467 16,400 1,200 Climbing FlightAware ADS-B
Wed 02:04:22 PM 21.6200 -157.3800 14° North 408 470 17,600 847 Climbing FlightAware ADS-B
Wed 02:05:02 PM 21.6820 -157.3630 14° North 408 470 17,600  Level FlightAware ADS-B
Wed 02:05:42 PM 21.7440 -157.3460 14° North 408 470 17,600  Level FlightAware ADS-B
Wed 02:06:22 PM 21.8060 -157.3300 13° North 408 470 17,600  Level FlightAware ADS-B
Wed 02:07:02 PM 21.8690 -157.3130 14° North 408 470 17,600  Level FlightAware ADS-B
Wed 02:07:42 PM 21.9310 -157.2960 14° North 408 470 17,600 6,327 Level FlightAware ADS-B
Wed 02:07:57 PM 22.0167 -157.2667 14° North 430 495 23,400 5,680 Climbing Honolulu Center
Wed 02:08:57 PM 22.1500 -157.2333 13° North 450 518 24,700 1,400 Climbing Honolulu Center
Wed 02:09:57 PM 22.2667 -157.2000 15° North 450 518 26,200 1,550 Climbing Honolulu Center
Wed 02:10:57 PM 22.4000 -157.1667 13° North 470 541 27,800 1,350 Climbing Honolulu Center
Wed 02:11:57 PM 22.5167 -157.1333 15° North 470 541 28,900 1,450 Climbing Honolulu Center
Wed 02:12:57 PM 22.6500 -157.1000 13° North 480 552 30,700 1,700 Climbing Honolulu Center
Wed 02:13:57 PM 22.7833 -157.0667 13° North 470 541 32,300 1,600 Climbing Honolulu Center
Wed 02:14:57 PM 22.9000 -157.0333 15° North 480 552 33,900 1,500 Climbing Honolulu Center
Wed 02:15:57 PM 23.0333 -157.0000 13° North 470 541 35,300 1,339 Climbing Honolulu Center
Wed 02:16:58 PM 23.1667 -156.9500 19° North 460 529 36,600 843 Climbing Honolulu Center
Wed 02:17:58 PM 23.2833 -156.9167 15° North 460 529 37,000 200 Climbing Honolulu Center
Wed 02:18:58 PM 23.4167 -156.8833 13° North 460 529 37,000  Level Honolulu Center
Wed 02:19:58 PM 23.5333 -156.8500 15° North 460 529 37,000  Level Honolulu Center
Wed 02:20:58 PM 23.6667 -156.8167 13° North 470 541 37,000  Level Honolulu Center
Wed 02:21:58 PM 23.7833 -156.7833 15° North 460 529 37,000  Level Honolulu Center
Wed 02:22:59 PM 23.9167 -156.7500 13° North 460 529 37,000  Level Honolulu Center
Wed 02:24:00 PM 24.0442 -156.7158 14° North  Level FlightAware Approximate
Wed 02:31:00 PM 24.9223 -156.4787 14° North  Level FlightAware Approximate
Wed 02:32:00 PM 25.0477 -156.4446 14° North  Level FlightAware Approximate
Wed 02:33:00 PM 25.1738 -156.4167 North  Level FlightAware Approximate
Wed 02:34:00 PM 25.2724 -156.3283 42° Northeast  Level FlightAware Approximate
Wed 02:35:00 PM 25.3685 -156.2328 42° Northeast  Level FlightAware Approximate
Wed 02:36:00 PM 25.4645 -156.1371 42° Northeast  Level FlightAware Approximate
Wed 02:36:14 PM 25.2000 -156.4167 42° Northeast 494 568 37,000  Level Oakland Oceanic (ODAPS)
Wed 02:37:00 PM 25.5604 -156.0413 42° Northeast  Level FlightAware Approximate
Wed 02:38:00 PM 25.6563 -155.9454 42° Northeast  Level FlightAware Approximate
Wed 02:39:00 PM 25.7521 -155.8492 42° Northeast  Level FlightAware Approximate
Wed 02:40:00 PM 25.8479 -155.7529 42° Northeast  Level FlightAware Approximate
Wed 02:41:00 PM 25.9436 -155.6565 42° Northeast  Level FlightAware Approximate
Wed 02:42:00 PM 26.1174 -155.4977 42° Northeast 494 568 37,000  Level FlightAware Transoceanic
Wed 02:43:00 PM 26.2190 -155.3947 42° Northeast 494 568 37,000  Level FlightAware Transoceanic
Wed 02:44:00 PM 26.3205 -155.2915 42° Northeast 494 568 37,000  Level FlightAware Transoceanic
Wed 02:45:00 PM 26.4219 -155.1882 42° Northeast 494 568 37,000  Level FlightAware Transoceanic
Wed 02:46:00 PM 26.5233 -155.0846 42° Northeast 494 568 37,000  Level FlightAware Transoceanic
Wed 02:47:00 PM 26.6246 -154.9809 43° Northeast 494 568 37,000  Level FlightAware Transoceanic
Wed 02:48:00 PM 26.7258 -154.8770 43° Northeast 494 568 37,000  Level FlightAware Transoceanic
Wed 02:49:00 PM 26.8269 -154.7729 43° Northeast 494 568 37,000  Level FlightAware Transoceanic
Wed 02:50:00 PM 26.9279 -154.6687 43° Northeast 494 568 37,000  Level FlightAware Transoceanic
Wed 02:51:00 PM 27.0289 -154.5642 43° Northeast 494 568 37,000  Level FlightAware Transoceanic
Wed 02:52:00 PM 27.1298 -154.4596 43° Northeast 494 568 37,000  Level FlightAware Transoceanic
Wed 02:53:00 PM 27.2306 -154.3547 43° Northeast 494 568 37,000  Level FlightAware Transoceanic
Wed 02:54:00 PM 27.3314 -154.2497 43° Northeast 494 568 37,000  Level FlightAware Transoceanic
Wed 02:55:00 PM 27.4321 -154.1445 43° Northeast 494 568 37,000  Level FlightAware Transoceanic
Wed 02:56:00 PM 27.5326 -154.0391 43° Northeast 494 568 37,000  Level FlightAware Transoceanic
Wed 02:57:00 PM 27.6331 -153.9335 43° Northeast 494 568 37,000  Level FlightAware Transoceanic
Wed 02:58:00 PM 27.7336 -153.8277 43° Northeast 494 568 37,000  Level FlightAware Transoceanic
Wed 02:59:00 PM 27.8339 -153.7217 43° Northeast 494 568 37,000  Level FlightAware Transoceanic
Wed 03:00:00 PM 27.9342 -153.6155 43° Northeast 494 568 37,000  Level FlightAware Transoceanic
Wed 03:01:00 PM 28.0343 -153.5091 43° Northeast 494 568 37,000  Level FlightAware Transoceanic
Wed 03:02:00 PM 28.1345 -153.4025 43° Northeast 494 568 37,000  Level FlightAware Transoceanic
Wed 03:03:00 PM 28.2345 -153.2958 43° Northeast 494 568 37,000  Level FlightAware Transoceanic
Wed 03:04:00 PM 28.3344 -153.1888 43° Northeast 494 568 37,000  Level FlightAware Transoceanic
Wed 03:05:00 PM 28.4342 -153.0816 43° Northeast 494 568 37,000  Level FlightAware Transoceanic
Wed 03:06:00 PM 28.5340 -152.9742 43° Northeast 494 568 37,000  Level FlightAware Transoceanic
Wed 03:07:00 PM 28.6337 -152.8666 43° Northeast 494 568 37,000  Level FlightAware Transoceanic
Wed 03:08:00 PM 28.7333 -152.7588 44° Northeast 494 568 37,000  Level FlightAware Transoceanic
Wed 03:09:00 PM 28.8328 -152.6508 44° Northeast 494 568 37,000  Level FlightAware Transoceanic
Wed 03:10:00 PM 28.9322 -152.5426 44° Northeast 494 568 37,000  Level FlightAware Transoceanic
Wed 03:11:00 PM 29.0316 -152.4342 44° Northeast 494 568 37,000  Level FlightAware Transoceanic
Wed 03:12:00 PM 29.1308 -152.3256 44° Northeast 494 568 37,000  Level FlightAware Transoceanic
Wed 03:13:00 PM 29.2300 -152.2168 44° Northeast 494 568 37,000  Level FlightAware Transoceanic
Wed 03:14:00 PM 29.3291 -152.1077 44° Northeast 494 568 37,000  Level FlightAware Transoceanic
Wed 03:15:00 PM 29.4280 -151.9985 44° Northeast 494 568 37,000  Level FlightAware Transoceanic
Wed 03:16:00 PM 29.5269 -151.8890 44° Northeast 494 568 37,000  Level FlightAware Transoceanic
Wed 03:17:00 PM 29.6257 -151.7793 44° Northeast 494 568 37,000  Level FlightAware Transoceanic
Wed 03:18:00 PM 29.7245 -151.6694 44° Northeast 494 568 37,000  Level FlightAware Transoceanic
Wed 03:19:00 PM 29.8231 -151.5593 44° Northeast 494 568 37,000  Level FlightAware Transoceanic
Wed 03:20:00 PM 29.9216 -151.4490 44° Northeast 494 568 37,000  Level FlightAware Transoceanic
Wed 03:21:00 PM 30.0201 -151.3384 44° Northeast 494 568 37,000  Level FlightAware Transoceanic
Wed 03:22:00 PM 30.1184 -151.2277 44° Northeast 494 568 37,000  Level FlightAware Transoceanic
Wed 03:23:00 PM 30.2167 -151.1167 44° Northeast 494 568 37,000  Level FlightAware Transoceanic
Wed 03:23:40 PM 30.2167 -151.1167 44° Northeast 516 594 37,000  Level Oakland Oceanic (ODAPS)
Wed 03:24:00 PM 30.3211 -150.9981 44° Northeast 494 568 37,000  Level FlightAware Transoceanic
Wed 03:25:00 PM 30.4255 -150.8794 45° Northeast 494 568 37,000  Level FlightAware Transoceanic
Wed 03:26:00 PM 30.5298 -150.7603 45° Northeast 494 568 37,000  Level FlightAware Transoceanic
Wed 03:27:00 PM 30.6340 -150.6410 45° Northeast 494 568 37,000  Level FlightAware Transoceanic
Wed 03:28:00 PM 30.7380 -150.5215 45° Northeast 494 568 37,000  Level FlightAware Transoceanic
Wed 03:29:00 PM 30.8419 -150.4017 45° Northeast 494 568 37,000  Level FlightAware Transoceanic
Wed 03:30:00 PM 31.0322 -150.1814 45° Northeast 516 594 37,000  Level FlightAware Transoceanic
Wed 03:31:00 PM 31.1337 -150.0633 45° Northeast 516 594 37,000  Level FlightAware Transoceanic
Wed 03:32:00 PM 31.2351 -149.9450 45° Northeast 516 594 37,000  Level FlightAware Transoceanic
Wed 03:33:00 PM 31.3363 -149.8265 45° Northeast 516 594 37,000  Level FlightAware Transoceanic
Wed 03:34:00 PM 31.4375 -149.7077 45° Northeast 516 594 37,000  Level FlightAware Transoceanic
Wed 03:35:00 PM 31.5385 -149.5886 45° Northeast 516 594 37,000  Level FlightAware Transoceanic
Wed 03:36:00 PM 31.6394 -149.4693 45° Northeast 516 594 37,000  Level FlightAware Transoceanic
Wed 03:37:00 PM 31.7402 -149.3498 45° Northeast 516 594 37,000  Level FlightAware Transoceanic
Wed 03:38:00 PM 31.8409 -149.2299 45° Northeast 516 594 37,000  Level FlightAware Transoceanic
Wed 03:39:00 PM 31.9415 -149.1098 45° Northeast 516 594 37,000  Level FlightAware Transoceanic
Wed 03:40:00 PM 32.0420 -148.9895 45° Northeast 516 594 37,000  Level FlightAware Transoceanic
Wed 03:41:00 PM 32.1423 -148.8689 46° Northeast 516 594 37,000  Level FlightAware Transoceanic
Wed 03:42:00 PM 32.2426 -148.7480 46° Northeast 516 594 37,000  Level FlightAware Transoceanic
Wed 03:43:00 PM 32.3427 -148.6268 46° Northeast 516 594 37,000  Level FlightAware Transoceanic
Wed 03:44:00 PM 32.4427 -148.5054 46° Northeast 516 594 37,000  Level FlightAware Transoceanic
Wed 03:45:00 PM 32.5426 -148.3837 46° Northeast 516 594 37,000  Level FlightAware Transoceanic
Wed 03:46:00 PM 32.6424 -148.2618 46° Northeast 516 594 37,000  Level FlightAware Transoceanic
Wed 03:47:00 PM 32.7421 -148.1396 46° Northeast 516 594 37,000  Level FlightAware Transoceanic
Wed 03:48:00 PM 32.8416 -148.0170 46° Northeast 516 594 37,000  Level FlightAware Transoceanic
Wed 03:49:00 PM 32.9411 -147.8943 46° Northeast 516 594 37,000  Level FlightAware Transoceanic
Wed 03:50:00 PM 33.0404 -147.7712 46° Northeast 516 594 37,000  Level FlightAware Transoceanic
Wed 03:51:00 PM 33.1395 -147.6479 46° Northeast 516 594 37,000  Level FlightAware Transoceanic
Wed 03:52:00 PM 33.2386 -147.5243 46° Northeast 516 594 37,000  Level FlightAware Transoceanic
Wed 03:53:00 PM 33.3375 -147.4004 46° Northeast 516 594 37,000  Level FlightAware Transoceanic
Wed 03:54:00 PM 33.4364 -147.2762 46° Northeast 516 594 37,000  Level FlightAware Transoceanic
Wed 03:55:00 PM 33.5350 -147.1517 46° Northeast 516 594 37,000  Level FlightAware Transoceanic
Wed 03:56:00 PM 33.6336 -147.0270 47° Northeast 516 594 37,000  Level FlightAware Transoceanic
Wed 03:57:00 PM 33.7321 -146.9020 47° Northeast 516 594 37,000  Level FlightAware Transoceanic
Wed 03:58:00 PM 33.8304 -146.7767 47° Northeast 516 594 37,000  Level FlightAware Transoceanic
Wed 03:59:00 PM 33.9286 -146.6510 47° Northeast 516 594 37,000  Level FlightAware Transoceanic
Wed 04:00:00 PM 34.0266 -146.5252 47° Northeast 516 594 37,000  Level FlightAware Transoceanic
Wed 04:01:00 PM 34.1245 -146.3990 47° Northeast 516 594 37,000  Level FlightAware Transoceanic
Wed 04:02:00 PM 34.2223 -146.2725 47° Northeast 516 594 37,000  Level FlightAware Transoceanic
Wed 04:03:00 PM 34.3200 -146.1457 47° Northeast 516 594 37,000  Level FlightAware Transoceanic
Wed 04:04:00 PM 34.4175 -146.0187 47° Northeast 516 594 37,000  Level FlightAware Transoceanic
Wed 04:05:00 PM 34.5150 -145.8913 47° Northeast 516 594 37,000  Level FlightAware Transoceanic
Wed 04:06:00 PM 34.6122 -145.7636 47° Northeast 516 594 37,000  Level FlightAware Transoceanic
Wed 04:07:00 PM 34.7094 -145.6357 47° Northeast 516 594 37,000  Level FlightAware Transoceanic
Wed 04:08:00 PM 34.8064 -145.5074 47° Northeast 516 594 37,000  Level FlightAware Transoceanic
Wed 04:09:00 PM 34.9033 -145.3789 47° Northeast 516 594 37,000  Level FlightAware Transoceanic
Wed 04:09:51 PM 35.0000 -145.2500 48° Northeast 544 626 37,000  Level Oakland Oceanic (ODAPS)
Wed 04:10:00 PM 35.0000 -145.2500 48° Northeast 516 594 37,000  Level FlightAware Transoceanic
Wed 04:11:00 PM 35.0962 -145.1212 48° Northeast 516 594 37,000  Level FlightAware Transoceanic
Wed 04:12:00 PM 35.1922 -144.9920 48° Northeast 516 594 37,000  Level FlightAware Transoceanic
Wed 04:13:00 PM 35.2881 -144.8626 48° Northeast 516 594 37,000  Level FlightAware Transoceanic
Wed 04:14:00 PM 35.3838 -144.7328 48° Northeast 516 594 37,000  Level FlightAware Transoceanic
Wed 04:15:00 PM 35.4794 -144.6028 48° Northeast 516 594 37,000  Level FlightAware Transoceanic
Wed 04:16:00 PM 35.7110 -144.2856 48° Northeast 544 626 37,000  Level FlightAware Transoceanic
Wed 04:17:00 PM 35.8120 -144.1464 48° Northeast 544 626 37,000  Level FlightAware Transoceanic
Wed 04:18:00 PM 35.9128 -144.0069 48° Northeast 544 626 37,000  Level FlightAware Transoceanic
Wed 04:19:00 PM 36.0134 -143.8670 48° Northeast 544 626 37,000  Level FlightAware Transoceanic
Wed 04:20:00 PM 36.1138 -143.7268 48° Northeast 544 626 37,000  Level FlightAware Transoceanic
Wed 04:21:00 PM 36.2141 -143.5862 49° Northeast 544 626 37,000  Level FlightAware Transoceanic
Wed 04:22:00 PM 36.3143 -143.4452 49° Northeast 544 626 37,000  Level FlightAware Transoceanic
Wed 04:23:00 PM 36.4142 -143.3039 49° Northeast 544 626 37,000  Level FlightAware Transoceanic
Wed 04:24:00 PM 36.5140 -143.1622 49° Northeast 544 626 37,000  Level FlightAware Transoceanic
Wed 04:25:00 PM 36.6136 -143.0202 49° Northeast 544 626 37,000  Level FlightAware Transoceanic
Wed 04:26:00 PM 36.7131 -142.8778 49° Northeast 544 626 37,000  Level FlightAware Transoceanic
Wed 04:27:00 PM 36.8124 -142.7350 49° Northeast 544 626 37,000  Level FlightAware Transoceanic
Wed 04:28:00 PM 36.9115 -142.5918 49° Northeast 544 626 37,000  Level FlightAware Transoceanic
Wed 04:29:00 PM 37.0105 -142.4483 49° Northeast 544 626 37,000  Level FlightAware Transoceanic
Wed 04:30:00 PM 37.1092 -142.3044 49° Northeast 544 626 37,000  Level FlightAware Transoceanic
Wed 04:31:00 PM 37.2078 -142.1601 49° Northeast 544 626 37,000  Level FlightAware Transoceanic
Wed 04:32:00 PM 37.3063 -142.0155 50° Northeast 544 626 37,000  Level FlightAware Transoceanic
Wed 04:33:00 PM 37.4045 -141.8704 50° Northeast 544 626 37,000  Level FlightAware Transoceanic
Wed 04:34:00 PM 37.5026 -141.7250 50° Northeast 544 626 37,000  Level FlightAware Transoceanic
Wed 04:35:00 PM 37.6005 -141.5792 50° Northeast 544 626 37,000  Level FlightAware Transoceanic
Wed 04:36:00 PM 37.6982 -141.4330 50° Northeast 544 626 37,000  Level FlightAware Transoceanic
Wed 04:37:00 PM 37.7957 -141.2865 50° Northeast 544 626 37,000  Level FlightAware Transoceanic
Wed 04:38:00 PM 37.8931 -141.1395 50° Northeast 544 626 37,000  Level FlightAware Transoceanic
Wed 04:39:00 PM 37.9902 -140.9922 50° Northeast 544 626 37,000  Level FlightAware Transoceanic
Wed 04:40:00 PM 38.0872 -140.8445 50° Northeast 544 626 37,000  Level FlightAware Transoceanic
Wed 04:41:00 PM 38.1840 -140.6963 50° Northeast 544 626 37,000  Level FlightAware Transoceanic
Wed 04:42:00 PM 38.2806 -140.5478 50° Northeast 544 626 37,000  Level FlightAware Transoceanic
Wed 04:43:00 PM 38.3770 -140.3989 51° Northeast 544 626 37,000  Level FlightAware Transoceanic
Wed 04:44:00 PM 38.4733 -140.2496 51° Northeast 544 626 37,000  Level FlightAware Transoceanic
Wed 04:45:00 PM 38.5693 -140.0999 51° Northeast 544 626 37,000  Level FlightAware Transoceanic
Wed 04:46:00 PM 38.6651 -139.9498 51° Northeast 544 626 37,000  Level FlightAware Transoceanic
Wed 04:47:00 PM 38.7608 -139.7993 51° Northeast 544 626 37,000  Level FlightAware Transoceanic
Wed 04:48:00 PM 38.8563 -139.6484 51° Northeast 544 626 37,000  Level FlightAware Transoceanic
Wed 04:49:00 PM 38.9515 -139.4970 51° Northeast 544 626 37,000  Level FlightAware Transoceanic
Wed 04:50:00 PM 39.0466 -139.3453 51° Northeast 544 626 37,000  Level FlightAware Transoceanic
Wed 04:51:00 PM 39.1415 -139.1932 51° Northeast 544 626 37,000  Level FlightAware Transoceanic
Wed 04:52:00 PM 39.2362 -139.0406 51° Northeast 544 626 37,000  Level FlightAware Transoceanic
Wed 04:53:00 PM 39.3306 -138.8877 51° Northeast 544 626 37,000  Level FlightAware Transoceanic
Wed 04:54:00 PM 39.4249 -138.7343 52° Northeast 544 626 37,000  Level FlightAware Transoceanic
Wed 04:55:00 PM 39.5190 -138.5805 52° Northeast 544 626 37,000  Level FlightAware Transoceanic
Wed 04:56:00 PM 39.6129 -138.4263 52° Northeast 544 626 37,000  Level FlightAware Transoceanic
Wed 04:57:00 PM 39.7065 -138.2717 52° Northeast 544 626 37,000  Level FlightAware Transoceanic
Wed 04:58:00 PM 39.8000 -138.1167 52° Northeast 544 626 37,000  Level FlightAware Transoceanic
Wed 04:59:00 PM 39.8802 -137.9832 52° Northeast 544 626 37,000  Level FlightAware Transoceanic
Wed 05:00:00 PM 39.9602 -137.8495 52° Northeast 544 626 37,000 545 Level FlightAware Transoceanic
Wed 05:00:50 PM 39.8000 -138.1167 52° Northeast 505 581 38,000  Climbing Oakland Oceanic (ODAPS)
Wed 05:01:00 PM 40.0400 -137.7154 52° Northeast 544 626 37,000 -857 Descending FlightAware Transoceanic
Wed 05:02:00 PM 40.1197 -137.5810 52° Northeast 544 626 37,000  Level FlightAware Transoceanic
Wed 05:03:00 PM 40.1993 -137.4463 52° Northeast 544 626 37,000  Level FlightAware Transoceanic
Wed 05:04:00 PM 40.2787 -137.3112 52° Northeast 544 626 37,000  Level FlightAware Transoceanic
Wed 05:05:00 PM 40.3579 -137.1759 53° Northeast 544 626 37,000  Level FlightAware Transoceanic
Wed 05:06:00 PM 40.4370 -137.0402 53° Northeast 544 626 37,000 500 Level FlightAware Transoceanic
Wed 05:07:00 PM 40.3997 -137.1043 53° Northeast 505 581 38,000 500 Climbing FlightAware Transoceanic
Wed 05:08:00 PM 40.4846 -136.9582 53° Northeast 505 581 38,000  Level FlightAware Transoceanic
Wed 05:09:00 PM 40.5694 -136.8117 53° Northeast 505 581 38,000  Level FlightAware Transoceanic
Wed 05:10:00 PM 40.6540 -136.6649 53° Northeast 505 581 38,000  Level FlightAware Transoceanic
Wed 05:11:00 PM 40.7383 -136.5177 53° Northeast 505 581 38,000  Level FlightAware Transoceanic
Wed 05:12:00 PM 40.8226 -136.3701 53° Northeast 505 581 38,000  Level FlightAware Transoceanic
Wed 05:13:00 PM 40.9066 -136.2221 53° Northeast 505 581 38,000  Level FlightAware Transoceanic
Wed 05:14:00 PM 40.9904 -136.0738 53° Northeast 505 581 38,000  Level FlightAware Transoceanic
Wed 05:15:00 PM 41.0740 -135.9251 53° Northeast 505 581 38,000  Level FlightAware Transoceanic
Wed 05:16:00 PM 41.1575 -135.7760 53° Northeast 505 581 38,000  Level FlightAware Transoceanic
Wed 05:17:00 PM 41.2407 -135.6265 54° Northeast 505 581 38,000  Level FlightAware Transoceanic
Wed 05:18:00 PM 41.3238 -135.4767 54° Northeast 505 581 38,000  Level FlightAware Transoceanic
Wed 05:19:00 PM 41.4066 -135.3265 54° Northeast 505 581 38,000  Level FlightAware Transoceanic
Wed 05:20:00 PM 41.4893 -135.1759 54° Northeast 505 581 38,000  Level FlightAware Transoceanic
Wed 05:21:00 PM 41.5718 -135.0249 54° Northeast 505 581 38,000  Level FlightAware Transoceanic
Wed 05:22:00 PM 41.6540 -134.8735 54° Northeast 505 581 38,000  Level FlightAware Transoceanic
Wed 05:23:00 PM 41.7361 -134.7217 54° Northeast 505 581 38,000  Level FlightAware Transoceanic
Wed 05:24:00 PM 41.8180 -134.5695 54° Northeast 505 581 38,000  Level FlightAware Transoceanic
Wed 05:25:00 PM 41.8996 -134.4170 54° Northeast 505 581 38,000  Level FlightAware Transoceanic
Wed 05:26:00 PM 41.9811 -134.2641 54° Northeast 505 581 38,000  Level FlightAware Transoceanic
Wed 05:27:00 PM 42.0623 -134.1107 55° Northeast 505 581 38,000  Level FlightAware Transoceanic
Wed 05:28:00 PM 42.1434 -133.9570 55° Northeast 505 581 38,000  Level FlightAware Transoceanic
Wed 05:29:00 PM 42.2243 -133.8029 55° Northeast 505 581 38,000  Level FlightAware Transoceanic
Wed 05:30:00 PM 42.3049 -133.6484 55° Northeast 505 581 38,000  Level FlightAware Transoceanic
Wed 05:31:00 PM 42.3853 -133.4935 55° Northeast 505 581 38,000  Level FlightAware Transoceanic
Wed 05:32:00 PM 42.4656 -133.3382 55° Northeast 505 581 38,000  Level FlightAware Transoceanic
Wed 05:33:00 PM 42.5456 -133.1825 55° Northeast 505 581 38,000  Level FlightAware Transoceanic
Wed 05:34:00 PM 42.6254 -133.0264 55° Northeast 505 581 38,000  Level FlightAware Transoceanic
Wed 05:35:00 PM 42.7050 -132.8699 55° Northeast 505 581 38,000  Level FlightAware Transoceanic
Wed 05:36:00 PM 42.7844 -132.7130 55° Northeast 505 581 38,000  Level FlightAware Transoceanic
Wed 05:37:00 PM 42.8635 -132.5557 56° Northeast 505 581 38,000  Level FlightAware Transoceanic
Wed 05:38:00 PM 42.9425 -132.3980 56° Northeast 505 581 38,000  Level FlightAware Transoceanic
Wed 05:39:00 PM 43.0212 -132.2399 56° Northeast 505 581 38,000  Level FlightAware Transoceanic
Wed 05:40:00 PM 43.0997 -132.0814 56° Northeast 505 581 38,000  Level FlightAware Transoceanic
Wed 05:41:00 PM 43.1780 -131.9225 56° Northeast 505 581 38,000  Level FlightAware Transoceanic
Wed 05:42:00 PM 43.2561 -131.7631 56° Northeast 505 581 38,000  Level FlightAware Transoceanic
Wed 05:43:00 PM 43.3339 -131.6034 56° Northeast 505 581 38,000  Level FlightAware Transoceanic
Wed 05:44:00 PM 43.4116 -131.4432 56° Northeast 505 581 38,000  Level FlightAware Transoceanic
Wed 05:45:00 PM 43.4890 -131.2827 56° Northeast 505 581 38,000  Level FlightAware Transoceanic
Wed 05:46:00 PM 43.5662 -131.1217 57° Northeast 505 581 38,000  Level FlightAware Transoceanic
Wed 05:47:00 PM 43.6431 -130.9603 57° Northeast 505 581 38,000  Level FlightAware Transoceanic
Wed 05:48:00 PM 43.7198 -130.7985 57° Northeast 505 581 38,000  Level FlightAware Transoceanic
Wed 05:49:00 PM 43.7963 -130.6363 57° Northeast 505 581 38,000  Level FlightAware Transoceanic
Wed 05:50:00 PM 43.8726 -130.4737 57° Northeast 505 581 38,000  Level FlightAware Transoceanic
Wed 05:51:00 PM 43.9486 -130.3107 57° Northeast 505 581 38,000  Level FlightAware Transoceanic
Wed 05:52:00 PM 44.0244 -130.1472 57° Northeast 505 581 38,000  Level FlightAware Transoceanic
Wed 05:53:00 PM 44.1000 -129.9833 58° Northeast 505 581 38,000  Level FlightAware Transoceanic
Wed 05:54:00 PM 44.1656 -129.8383 58° Northeast 505 581 38,000  Level FlightAware Transoceanic
Wed 05:55:00 PM 44.2311 -129.6929 58° Northeast 505 581 38,000  Level FlightAware Transoceanic
Wed 05:56:00 PM 44.2963 -129.5472 58° Northeast 505 581 38,000  Level FlightAware Transoceanic
Wed 05:57:00 PM 44.3614 -129.4012 58° Northeast 505 581 38,000  Level FlightAware Transoceanic
Wed 05:58:00 PM 44.4263 -129.2548 58° Northeast 505 581 38,000  Level FlightAware Transoceanic
Wed 05:59:00 PM 44.4910 -129.1081 58° Northeast 505 581 38,000  Level FlightAware Transoceanic
Wed 06:00:00 PM 44.5555 -128.9611 58° Northeast 505 581 38,000  Level FlightAware Transoceanic
Wed 06:01:00 PM 44.6198 -128.8138 59° Northeast 505 581 38,000  Level FlightAware Transoceanic
Wed 06:02:00 PM 44.6839 -128.6661 59° Northeast 505 581 38,000  Level FlightAware Transoceanic
Wed 06:02:32 PM 44.4140 -129.2910 59° Northeast 428 493 38,000  Level FlightAware ADS-B
Wed 06:03:00 PM 44.7479 -128.5181 59° Northeast 505 581 38,000  Level FlightAware Transoceanic
Wed 06:03:12 PM 44.4550 -129.2000 58° Northeast 427 491 38,000  Level FlightAware ADS-B
Wed 06:03:57 PM 44.5020 -129.0950 58° Northeast 426 490 38,000  Level FlightAware ADS-B
Wed 06:04:37 PM 44.5440 -128.9990 58° Northeast 425 489 38,000  Level FlightAware ADS-B
Wed 06:05:17 PM 44.5860 -128.9040 58° Northeast 425 489 38,000  Level FlightAware ADS-B
Wed 06:05:24 PM 44.1000 -129.9833 58° Northeast 444 511 38,000  Level Oakland Oceanic (ODAPS)
Wed 06:05:57 PM 44.6260 -128.8120 59° Northeast 426 490 38,000  Level FlightAware ADS-B
Wed 06:06:42 PM 44.6730 -128.7060 58° Northeast 426 490 38,000  Level FlightAware ADS-B
Wed 06:07:27 PM 44.7190 -128.5990 59° Northeast 427 491 38,000  Level FlightAware ADS-B
Wed 06:08:07 PM 44.7600 -128.5040 59° Northeast 427 491 38,000  Level FlightAware ADS-B
Wed 06:08:47 PM 44.8020 -128.4070 59° Northeast 428 493 38,000  Level FlightAware ADS-B
Wed 06:09:32 PM 44.8490 -128.2990 58° Northeast 428 493 38,000  Level FlightAware ADS-B
Wed 06:10:12 PM 44.8900 -128.2030 59° Northeast 428 493 38,000  Level FlightAware ADS-B
Wed 06:10:57 PM 44.9360 -128.0970 58° Northeast 428 493 38,000  Level FlightAware ADS-B
Wed 06:11:37 PM 44.9760 -128.0020 59° Northeast 427 491 38,000  Level FlightAware ADS-B
Wed 06:12:17 PM 45.0160 -127.9080 59° Northeast 427 491 38,000  Level FlightAware ADS-B
Wed 06:13:02 PM 45.0650 -127.7950 58° Northeast 427 491 38,000  Level FlightAware ADS-B
Wed 06:13:42 PM 45.1040 -127.7020 59° Northeast 427 491 38,000  Level FlightAware ADS-B
Wed 06:14:22 PM 45.1460 -127.6040 59° Northeast 427 491 38,000  Level FlightAware ADS-B
Wed 06:15:07 PM 45.1900 -127.5000 59° Northeast 427 491 38,000  Level FlightAware ADS-B
Wed 06:15:47 PM 45.2310 -127.4010 60° Northeast 427 491 38,000  Level FlightAware ADS-B
Wed 06:16:32 PM 45.2770 -127.2910 59° Northeast 428 493 38,000  Level FlightAware ADS-B
Wed 06:17:12 PM 45.3170 -127.1950 59° Northeast 427 491 38,000  Level FlightAware ADS-B
Wed 06:17:52 PM 45.3570 -127.0970 60° Northeast 427 491 38,000  Level FlightAware ADS-B
Wed 06:18:37 PM 45.4010 -126.9900 60° Northeast 426 490 38,000  Level FlightAware ADS-B
Wed 06:19:17 PM 45.4420 -126.8910 59° Northeast 427 491 38,000  Level FlightAware ADS-B
Wed 06:20:02 PM 45.4850 -126.7850 60° Northeast 426 490 38,000  Level FlightAware ADS-B
Wed 06:20:42 PM 45.5280 -126.6890 57° Northeast 429 494 38,000  Level FlightAware ADS-B
Wed 06:21:22 PM 45.5780 -126.6020 51° Northeast 429 494 38,000  Level FlightAware ADS-B
Wed 06:22:07 PM 45.6350 -126.5020 51° Northeast 430 495 38,000  Level FlightAware ADS-B
Wed 06:22:47 PM 45.6860 -126.4130 51° Northeast 430 495 38,000  Level FlightAware ADS-B
Wed 06:23:27 PM 45.7350 -126.3290 50° Northeast 432 497 38,000  Level FlightAware ADS-B
Wed 06:24:12 PM 45.7930 -126.2290 50° Northeast 434 499 38,000  Level FlightAware ADS-B
Wed 06:24:52 PM 45.8450 -126.1380 51° Northeast 435 501 38,000  Level FlightAware ADS-B
Wed 06:25:37 PM 45.9040 -126.0350 51° Northeast 437 503 38,000  Level FlightAware ADS-B
Wed 06:26:12 PM 45.9480 -125.9590 50° Northeast 437 503 38,000  Level FlightAware ADS-B
Wed 06:26:52 PM 45.9980 -125.8700 51° Northeast 437 503 38,000  Level FlightAware ADS-B
Wed 06:27:32 PM 46.0500 -125.7790 51° Northeast 437 503 38,000  Level FlightAware ADS-B
Wed 06:28:17 PM 46.1080 -125.6760 51° Northeast 437 503 38,000  Level FlightAware ADS-B
Wed 06:28:57 PM 46.1590 -125.5850 51° Northeast 436 502 38,000  Level FlightAware ADS-B
Wed 06:29:37 PM 46.2100 -125.4940 51° Northeast 436 502 38,000  Level FlightAware ADS-B
Wed 06:30:22 PM 46.2650 -125.3950 51° Northeast 436 502 38,000  Level FlightAware ADS-B
Wed 06:31:02 PM 46.3160 -125.3030 51° Northeast 436 502 38,000  Level FlightAware ADS-B
Wed 06:31:47 PM 46.3740 -125.1990 51° Northeast 436 502 38,000  Level FlightAware ADS-B
Wed 06:32:27 PM 46.4250 -125.1080 51° Northeast 436 502 38,000  Level FlightAware ADS-B
Wed 06:33:07 PM 46.4780 -125.0220 48° Northeast 436 502 38,000  Level FlightAware ADS-B
Wed 06:33:52 PM 46.5340 -124.9200 51° Northeast 435 501 38,000  Level FlightAware ADS-B
Wed 06:34:32 PM 46.5840 -124.8280 52° Northeast 436 502 38,000  Level FlightAware ADS-B
Wed 06:35:17 PM 46.6410 -124.7230 52° Northeast 437 503 38,000  Level FlightAware ADS-B
Wed 06:35:57 PM 46.6890 -124.6340 52° Northeast 437 503 38,000  Level FlightAware ADS-B
Wed 06:36:47 PM 46.7450 -124.5310 52° Northeast 432 497 38,000  Level FlightAware ADS-B
Wed 06:37:37 PM 46.8090 -124.4110 52° Northeast 434 499 38,000  Level FlightAware ADS-B
Wed 06:38:12 PM 46.8550 -124.3260 52° Northeast 438 504 38,000  Level FlightAware ADS-B
Wed 06:38:57 PM 46.9110 -124.2210 52° Northeast 439 505 38,000  Level FlightAware ADS-B
Wed 06:39:52 PM 46.9790 -124.0950 52° Northeast 439 505 38,000  Level FlightAware ADS-B
Wed 06:40:37 PM 47.0370 -123.9860 52° Northeast 439 505 38,000  Level FlightAware ADS-B
Wed 06:41:17 PM 47.0860 -123.8950 52° Northeast 439 505 38,000  Level FlightAware ADS-B
Wed 06:41:57 PM 47.1370 -123.7990 52° Northeast 440 506 38,000  Level FlightAware ADS-B
Wed 06:42:42 PM 47.1930 -123.6940 52° Northeast 434 499 38,000  Level FlightAware ADS-B
Wed 06:43:37 PM 47.2610 -123.5640 52° Northeast 435 501 38,000  Level FlightAware ADS-B
Wed 06:44:17 PM 47.3120 -123.4680 52° Northeast 435 501 38,000  Level FlightAware ADS-B
Wed 06:45:02 PM 47.3670 -123.3620 53° Northeast 435 501 38,000 -750 Level FlightAware ADS-B
Wed 06:45:37 PM 47.4120 -123.2770 52° Northeast 445 512 37,000 -2,100 Descending FlightAware ADS-B
Wed 06:46:22 PM 47.4660 -123.1720 53° Northeast 449 517 35,200 -2,733 Descending FlightAware ADS-B
Wed 06:47:07 PM 47.5240 -123.0590 53° Northeast 453 521 32,900 -3,133 Descending FlightAware ADS-B
Wed 06:47:52 PM 47.5810 -122.9470 53° Northeast 456 525 30,500 -3,035 Descending FlightAware ADS-B
Wed 06:48:32 PM 47.6330 -122.8450 53° Northeast 451 519 28,600 -2,775 Descending FlightAware ADS-B
Wed 06:49:12 PM 47.6870 -122.7500 50° Northeast 435 501 26,800 -2,541 Descending FlightAware ADS-B
Wed 06:49:57 PM 47.7650 -122.6910 27° Northeast 431 496 25,000 -2,471 Descending FlightAware ADS-B
Wed 06:50:37 PM 47.8430 -122.6610 14° North 415 478 23,300 -2,541 Descending FlightAware ADS-B
Wed 06:51:22 PM 47.9280 -122.6280 15° North 414 476 21,400 -2,682 Descending FlightAware ADS-B
Wed 06:52:02 PM 48.0010 -122.5990 15° North 413 475 19,500 -3,450 Descending FlightAware ADS-B
Wed 06:52:42 PM 48.0780 -122.5690 15° North 418 481 16,800 -3,247 Descending FlightAware ADS-B
Wed 06:53:27 PM 48.1610 -122.5360 15° North 402 463 14,900 -2,682 Descending FlightAware ADS-B
Wed 06:54:07 PM 48.2330 -122.5060 16° North 399 459 13,000 -2,824 Descending FlightAware ADS-B
Wed 06:54:52 PM 48.3110 -122.4740 15° North 385 443 10,900 -2,047 Descending FlightAware ADS-B
Wed 06:55:32 PM 48.3800 -122.4450 16° North 348 400 10,100 -943 Descending FlightAware ADS-B
Wed 06:56:02 PM 48.4260 -122.4270 15° North 321 369 9,800 -218 Descending FlightAware ADS-B
Wed 06:56:27 PM 48.4620 -122.4140 13° North 288 331 9,900 -218 Climbing FlightAware ADS-B
Wed 06:56:57 PM 48.5030 -122.4190 355° North 273 314 9,600 -800 Descending FlightAware ADS-B
Wed 06:57:12 PM 48.5220 -122.4250 348° North 271 312 9,300 -1,500 Descending FlightAware ADS-B
Wed 06:57:37 PM 48.5530 -122.4360 347° North 270 311 8,600 -1,745 Descending FlightAware ADS-B
Wed 06:58:07 PM 48.5890 -122.4460 350° North 269 310 7,700 -1,500 Descending FlightAware ADS-B
Wed 06:58:17 PM 48.5990 -122.4460 360° North 269 310 7,600 -1,200 Descending FlightAware ADS-B
Wed 06:58:52 PM 48.6440 -122.4460 360° North 266 306 6,800 -1,200 Descending FlightAware ADS-B
Wed 06:59:22 PM 48.6840 -122.4440 North 262 302 6,300 -1,200 Descending FlightAware ADS-B
Wed 06:59:32 PM 48.6950 -122.4430 North 262 302 6,000 -1,543 Descending FlightAware ADS-B
Wed 06:59:57 PM 48.7250 -122.4420 North 264 304 5,400 -1,400 Descending FlightAware ADS-B
Wed 07:00:32 PM 48.7660 -122.4410 North 260 299 4,600 -1,300 Descending FlightAware ADS-B
Wed 07:00:57 PM 48.7970 -122.4410 360° North 243 280 4,100 -1,418 Descending FlightAware ADS-B
Wed 07:01:27 PM 48.8290 -122.4400 North 227 261 3,300 -1,309 Descending FlightAware ADS-B
Wed 07:01:52 PM 48.8520 -122.4390 North 216 249 2,900 -545 Descending FlightAware ADS-B
Wed 07:02:22 PM 48.8810 -122.4380 North 190 219 2,800 -133 Descending FlightAware ADS-B
Wed 07:02:37 PM 48.8950 -122.4400 355° North 177 204 2,800 -400 Level FlightAware ADS-B
Wed 07:02:52 PM 48.9050 -122.4520 322° Northwest 172 198 2,600 -960 Descending FlightAware ADS-B
Wed 07:03:02 PM 48.9070 -122.4630 285° West 174 200 2,400 -1,067 Descending FlightAware ADS-B
Wed 07:03:37 PM 48.9060 -122.5060 268° West 184 212 1,800 -840 Descending FlightAware ADS-B
Wed 07:03:52 PM 48.8990 -122.5220 236° Southwest 178 205 1,700 -800 Descending FlightAware ADS-B
Wed 07:04:07 PM 48.8890 -122.5270 198° South 172 198 1,400 -750 Descending FlightAware ADS-B
Wed 07:04:32 PM 48.8690 -122.5210 169° South 147 169 1,200 -764 Descending FlightAware ADS-B
Wed 07:05:02 PM 48.8510 -122.5220 182° South 127 146 700 -800 Descending FlightAware ADS-B
Wed 07:05:32 PM 48.8340 -122.5220 180° South 120 138 400 -655 Descending FlightAware ADS-B
Wed 07:05:57 PM 48.8210 -122.5230 183° South 121 139 100 -720 Descending FlightAware ADS-B
Wed 07:06:32 PM 48.8020 -122.5230 180° South 119 137 -171 Descending FlightAware ADS-B

Login

Don't have an account? Register now (free) for customized features, flight alerts, and more!